createdAt,value
2019-06-15T00:00:28.295Z,14.43
2019-06-15T00:02:54.896Z,13.57
2019-06-15T00:05:21.529Z,13.50
2019-06-15T00:07:48.301Z,14.20
2019-06-15T00:10:15.112Z,13.67
2019-06-15T00:12:41.688Z,14.50
2019-06-15T00:15:09.107Z,14.70
2019-06-15T00:17:35.899Z,14.37
2019-06-15T00:20:03.575Z,14.47
2019-06-15T00:22:30.531Z,14.03
2019-06-15T00:24:57.526Z,13.63
2019-06-15T00:27:24.176Z,14.80
2019-06-15T00:29:50.869Z,15.40
2019-06-15T00:32:17.494Z,14.60
2019-06-15T00:34:44.118Z,15.67
2019-06-15T00:37:11.383Z,14.03
2019-06-15T00:39:39.608Z,14.93
2019-06-15T00:42:06.267Z,14.83
2019-06-15T00:44:35.162Z,14.30
2019-06-15T00:47:01.890Z,15.17
2019-06-15T00:49:28.633Z,14.57
2019-06-15T00:51:55.272Z,15.30
2019-06-15T00:54:21.905Z,15.03
2019-06-15T00:56:48.540Z,14.73
2019-06-15T00:59:15.205Z,14.20
2019-06-15T01:01:42.101Z,15.10
2019-06-15T01:04:08.710Z,14.23
2019-06-15T01:06:35.448Z,14.40
2019-06-15T01:09:02.090Z,14.80
2019-06-15T01:11:28.893Z,15.10
2019-06-15T01:13:55.648Z,14.63
2019-06-15T01:16:22.306Z,14.90
2019-06-15T01:18:49.029Z,15.60
2019-06-15T01:21:15.653Z,15.03
2019-06-15T01:23:42.282Z,15.00
2019-06-15T01:26:08.914Z,15.07
2019-06-15T01:28:36.297Z,15.23
2019-06-15T01:31:03.172Z,15.20
2019-06-15T01:33:29.996Z,15.77
2019-06-15T01:35:57.537Z,14.87
2019-06-15T01:38:24.176Z,15.70
2019-06-15T01:40:50.815Z,15.13
2019-06-15T01:43:17.428Z,15.20
2019-06-15T01:45:44.090Z,15.07
2019-06-15T01:48:10.769Z,15.37
2019-06-15T01:50:37.512Z,15.57
2019-06-15T01:53:04.383Z,14.93
2019-06-15T01:55:31.206Z,14.97
2019-06-15T01:57:58.268Z,14.90
2019-06-15T02:00:28.601Z,15.50
2019-06-15T02:02:55.229Z,15.33
2019-06-15T02:05:22.800Z,15.73
2019-06-15T02:07:50.300Z,16.10
2019-06-15T02:10:18.538Z,14.63
2019-06-15T02:12:45.316Z,15.20
2019-06-15T02:15:13.090Z,15.73
2019-06-15T02:17:39.768Z,15.93
2019-06-15T02:20:06.894Z,14.77
2019-06-15T02:22:33.472Z,15.30
2019-06-15T02:25:00.147Z,15.60
2019-06-15T02:27:26.903Z,15.63
2019-06-15T02:29:53.562Z,15.40
2019-06-15T02:32:20.264Z,15.50
2019-06-15T02:34:47.196Z,15.93
2019-06-15T02:37:14.093Z,15.50
2019-06-15T02:39:40.770Z,14.67
2019-06-15T02:42:07.736Z,15.90
2019-06-15T02:44:34.630Z,15.93
2019-06-15T02:47:01.287Z,15.60
2019-06-15T02:49:27.990Z,15.87
2019-06-15T02:51:54.963Z,15.80
2019-06-15T02:54:21.669Z,16.80
2019-06-15T02:56:48.335Z,17.07
2019-06-15T02:59:14.959Z,16.47
2019-06-15T03:01:41.548Z,15.90
2019-06-15T03:04:08.195Z,16.03
2019-06-15T03:06:37.910Z,16.70
2019-06-15T03:09:05.327Z,16.20
2019-06-15T03:11:32.057Z,16.57
2019-06-15T03:13:59.096Z,17.07
2019-06-15T03:16:25.693Z,17.00
2019-06-15T03:18:52.300Z,16.43
2019-06-15T03:21:19.137Z,16.90
2019-06-15T03:23:46.157Z,19.33
2019-06-15T03:26:13.020Z,17.63
2019-06-15T03:28:40.648Z,17.50
2019-06-15T03:31:07.611Z,17.80
2019-06-15T03:33:35.133Z,18.13
2019-06-15T03:36:01.927Z,17.93
2019-06-15T03:38:28.704Z,19.40
2019-06-15T03:40:55.446Z,18.57
2019-06-15T03:43:22.465Z,19.37
2019-06-15T03:45:49.098Z,18.60
2019-06-15T03:48:15.746Z,19.10
2019-06-15T03:50:42.369Z,19.10
2019-06-15T03:53:09.231Z,18.33
2019-06-15T03:55:35.888Z,18.70
2019-06-15T03:58:02.832Z,18.70
2019-06-15T04:00:35.511Z,18.60
2019-06-15T04:03:02.157Z,18.10
2019-06-15T04:05:30.210Z,17.47
2019-06-15T04:07:56.956Z,19.10
2019-06-15T04:10:23.609Z,17.73
2019-06-15T04:12:50.464Z,18.77
2019-06-15T04:15:17.384Z,18.93
2019-06-15T04:17:44.045Z,19.93
2019-06-15T04:20:11.222Z,19.40
2019-06-15T04:22:37.911Z,19.20
2019-06-15T04:25:04.858Z,18.00
2019-06-15T04:27:31.743Z,19.80
2019-06-15T04:29:58.660Z,19.20
2019-06-15T04:32:25.260Z,18.10
2019-06-15T04:34:51.885Z,18.43
2019-06-15T04:37:18.509Z,20.10
2019-06-15T04:39:45.233Z,18.03
2019-06-15T04:42:12.099Z,18.60
2019-06-15T04:44:38.824Z,18.60
2019-06-15T04:47:05.784Z,17.87
2019-06-15T04:49:32.427Z,18.23
2019-06-15T04:51:59.045Z,17.77
2019-06-15T04:54:25.972Z,17.83
2019-06-15T04:56:52.674Z,18.77
2019-06-15T04:59:19.304Z,17.03
2019-06-15T05:01:45.936Z,17.53
2019-06-15T05:04:12.693Z,18.30
2019-06-15T05:06:39.375Z,17.47
2019-06-15T05:09:06.308Z,16.70
2019-06-15T05:11:33.043Z,16.57
2019-06-15T05:13:59.631Z,16.97
2019-06-15T05:16:26.318Z,17.07
2019-06-15T05:18:52.925Z,16.60
2019-06-15T05:21:19.557Z,15.37
2019-06-15T05:23:46.188Z,17.17
2019-06-15T05:26:12.838Z,16.90
2019-06-15T05:28:39.440Z,16.57
2019-06-15T05:31:06.345Z,16.20
2019-06-15T05:33:32.968Z,15.83
2019-06-15T05:35:59.585Z,16.07
2019-06-15T05:38:26.221Z,15.43
2019-06-15T05:40:52.885Z,14.97
2019-06-15T05:43:19.790Z,15.20
2019-06-15T05:45:46.490Z,16.00
2019-06-15T05:48:13.101Z,15.83
2019-06-15T05:50:39.753Z,14.93
2019-06-15T05:53:06.802Z,15.33
2019-06-15T05:55:33.428Z,15.40
2019-06-15T05:58:00.168Z,15.00
2019-06-15T06:00:26.751Z,15.23
2019-06-15T06:02:53.364Z,14.53
2019-06-15T06:05:20.085Z,14.87
2019-06-15T06:07:46.686Z,13.63
2019-06-15T06:10:13.738Z,14.23
2019-06-15T06:12:40.425Z,13.90
2019-06-15T06:15:07.781Z,13.57
2019-06-15T06:17:34.404Z,13.57
2019-06-15T06:20:01.114Z,13.97
2019-06-15T06:22:27.711Z,13.47
2019-06-15T06:24:54.302Z,13.47
2019-06-15T06:27:33.357Z,14.67
2019-06-15T06:29:49.458Z,12.77
2019-06-15T06:32:16.049Z,13.60
2019-06-15T06:34:43.052Z,13.33
2019-06-15T06:37:10.048Z,12.30
2019-06-15T06:39:36.684Z,13.73
2019-06-15T06:42:03.368Z,13.60
2019-06-15T06:44:29.985Z,12.70
2019-06-15T06:46:56.715Z,12.80
2019-06-15T06:49:23.661Z,14.23
2019-06-15T06:51:50.592Z,13.40
2019-06-15T06:54:17.203Z,13.43
2019-06-15T06:56:43.787Z,13.10
2019-06-15T06:59:10.442Z,13.70
2019-06-15T07:01:37.159Z,13.37
2019-06-15T07:04:03.891Z,13.00
2019-06-15T07:06:30.541Z,12.57
2019-06-15T07:08:57.189Z,13.43
2019-06-15T07:11:23.801Z,28.77
2019-06-15T07:13:50.400Z,14.07
2019-06-15T07:16:17.112Z,13.00
2019-06-15T07:18:43.724Z,12.63
2019-06-15T07:21:10.379Z,18.73
2019-06-15T07:23:36.997Z,14.00
2019-06-15T07:26:03.698Z,14.83
2019-06-15T07:28:30.421Z,13.20
2019-06-15T07:30:57.035Z,14.37
2019-06-15T07:33:23.660Z,13.47
2019-06-15T07:35:50.389Z,13.10
2019-06-15T07:38:16.976Z,13.43
2019-06-15T07:40:43.599Z,14.13
2019-06-15T07:43:10.232Z,13.63
2019-06-15T07:45:36.849Z,14.17
2019-06-15T07:48:03.865Z,13.33
2019-06-15T07:50:30.545Z,13.10
2019-06-15T07:52:57.165Z,13.13
2019-06-15T07:55:23.787Z,12.70
2019-06-15T07:57:50.438Z,13.50
2019-06-15T08:00:17.835Z,13.17
2019-06-15T08:02:44.464Z,12.50
2019-06-15T08:05:11.520Z,12.73
2019-06-15T08:07:38.511Z,12.83
2019-06-15T08:10:06.530Z,12.70
2019-06-15T08:12:33.216Z,12.70
2019-06-15T08:14:59.805Z,12.80
2019-06-15T08:17:26.400Z,13.10
2019-06-15T08:19:53.005Z,12.93
2019-06-15T08:22:19.912Z,13.20
2019-06-15T08:24:46.528Z,13.17
2019-06-15T08:27:13.140Z,13.67
2019-06-15T08:29:39.865Z,14.00
2019-06-15T08:32:06.664Z,14.63
2019-06-15T08:34:33.301Z,13.87
2019-06-15T08:36:59.876Z,13.40
2019-06-15T08:39:26.566Z,13.83
2019-06-15T08:41:56.140Z,12.97
2019-06-15T08:44:21.741Z,13.60
2019-06-15T08:46:48.341Z,14.00
2019-06-15T08:49:15.127Z,14.50
2019-06-15T08:51:42.140Z,13.63
2019-06-15T08:54:09.398Z,15.60
2019-06-15T08:56:36.089Z,14.13
2019-06-15T08:59:02.775Z,15.43
2019-06-15T09:01:29.533Z,13.30
2019-06-15T09:03:56.320Z,14.47
2019-06-15T09:06:22.951Z,14.20
2019-06-15T09:08:49.567Z,15.07
2019-06-15T09:11:16.552Z,14.90
2019-06-15T09:13:43.226Z,15.33
2019-06-15T09:16:10.272Z,15.83
2019-06-15T09:18:37.029Z,15.10
2019-06-15T09:21:03.740Z,14.87
2019-06-15T09:23:30.676Z,15.63
2019-06-15T09:25:57.377Z,15.43
2019-06-15T09:28:24.551Z,15.30
2019-06-15T09:30:51.224Z,15.00
2019-06-15T09:33:17.875Z,16.10
2019-06-15T09:35:44.469Z,15.30
2019-06-15T09:38:11.109Z,16.20
2019-06-15T09:40:37.825Z,15.33
2019-06-15T09:43:04.717Z,15.50
2019-06-15T09:45:33.085Z,15.13
2019-06-15T09:48:00.287Z,16.23
2019-06-15T09:50:27.233Z,14.70
2019-06-15T09:52:53.960Z,14.70
2019-06-15T09:55:21.506Z,14.63
2019-06-15T09:57:48.119Z,13.70
2019-06-15T10:00:15.276Z,15.30
2019-06-15T10:02:42.208Z,15.27
2019-06-15T10:05:10.245Z,14.47
2019-06-15T10:07:37.180Z,14.60
2019-06-15T10:10:04.576Z,14.17
2019-06-15T10:12:31.296Z,14.93
2019-06-15T10:14:58.388Z,14.83
2019-06-15T10:17:25.601Z,13.47
2019-06-15T10:19:53.747Z,13.37
2019-06-15T10:22:20.524Z,13.60
2019-06-15T10:24:47.304Z,13.33
2019-06-15T10:27:13.925Z,13.33
2019-06-15T10:29:42.188Z,12.80
2019-06-15T10:32:09.052Z,13.27
2019-06-15T10:34:35.676Z,14.03
2019-06-15T10:37:02.562Z,13.90
2019-06-15T10:39:29.178Z,13.53
2019-06-15T10:41:56.414Z,13.43
2019-06-15T10:44:23.181Z,13.90
2019-06-15T10:46:56.298Z,13.97
2019-06-15T10:49:23.331Z,14.60
2019-06-15T10:51:50.125Z,13.77
2019-06-15T10:54:17.444Z,13.70
2019-06-15T10:56:45.291Z,14.43
2019-06-15T10:59:15.725Z,14.50
2019-06-15T11:01:42.366Z,14.33
2019-06-15T11:04:09.097Z,15.93
2019-06-15T11:06:35.763Z,16.03
2019-06-15T11:09:05.511Z,17.03
2019-06-15T11:11:32.110Z,17.20
2019-06-15T11:13:58.727Z,17.00
2019-06-15T11:16:25.483Z,17.47
2019-06-15T11:18:52.068Z,18.17
2019-06-15T11:21:18.660Z,19.03
2019-06-15T11:23:45.422Z,18.07
2019-06-15T11:26:12.204Z,17.60
2019-06-15T11:28:39.115Z,17.97
2019-06-15T11:31:05.781Z,17.70
2019-06-15T11:33:32.462Z,18.50
2019-06-15T11:35:59.413Z,17.03
2019-06-15T11:38:27.156Z,17.33
2019-06-15T11:40:54.281Z,18.27
2019-06-15T11:43:21.175Z,18.50
2019-06-15T11:45:48.608Z,17.23
2019-06-15T11:48:15.908Z,18.13
2019-06-15T11:50:43.369Z,17.07
2019-06-15T11:53:10.309Z,15.63
2019-06-15T11:55:39.777Z,16.60
2019-06-15T11:58:05.951Z,15.20
2019-06-15T12:00:36.538Z,14.93
2019-06-15T12:03:03.464Z,14.30
2019-06-15T12:05:30.172Z,12.87
2019-06-15T12:07:57.200Z,12.70
2019-06-15T12:10:23.862Z,12.90
2019-06-15T12:12:50.617Z,12.50
2019-06-15T12:15:17.789Z,13.90
2019-06-15T12:17:44.698Z,12.87
2019-06-15T12:20:11.712Z,13.40
2019-06-15T12:22:38.315Z,12.07
2019-06-15T12:25:05.703Z,12.67
2019-06-15T12:27:33.442Z,13.60
2019-06-15T12:30:00.143Z,14.30
2019-06-15T12:32:27.431Z,13.00
2019-06-15T12:34:54.052Z,14.87
2019-06-15T12:37:20.681Z,13.30
2019-06-15T12:39:47.275Z,12.40
2019-06-15T12:42:13.917Z,13.40
2019-06-15T12:44:41.172Z,13.03
2019-06-15T12:47:07.760Z,13.80
2019-06-15T12:49:34.833Z,13.30
2019-06-15T12:52:01.547Z,12.50
2019-06-15T12:54:28.831Z,11.77
2019-06-15T12:56:55.436Z,11.50
2019-06-15T12:59:22.570Z,11.60
2019-06-15T13:01:49.284Z,10.87
2019-06-15T13:04:15.897Z,9.27
2019-06-15T13:06:42.525Z,9.70
2019-06-15T13:09:09.137Z,9.17
2019-06-15T13:11:36.036Z,9.40
2019-06-15T13:14:03.627Z,9.73
2019-06-15T13:16:38.960Z,9.33
2019-06-15T13:18:59.623Z,9.53
2019-06-15T13:21:26.405Z,9.80
2019-06-15T13:23:52.992Z,10.40
2019-06-15T13:26:20.091Z,11.23
2019-06-15T13:28:46.708Z,10.43
2019-06-15T13:31:18.009Z,10.13
2019-06-15T13:33:41.828Z,10.70
2019-06-15T13:36:08.499Z,10.97
2019-06-15T13:38:35.145Z,10.73
2019-06-15T13:41:02.440Z,10.77
2019-06-15T13:43:29.177Z,9.40
2019-06-15T13:45:55.764Z,8.27
2019-06-15T13:48:22.584Z,7.57
2019-06-15T13:50:49.304Z,6.87
2019-06-15T13:53:16.025Z,7.33
2019-06-15T13:55:42.635Z,7.33
2019-06-15T13:58:09.318Z,7.20
2019-06-15T14:00:36.000Z,7.60
2019-06-15T14:03:03.132Z,7.23
2019-06-15T14:05:30.208Z,7.33
2019-06-15T14:07:57.409Z,6.97
2019-06-15T14:10:24.134Z,6.40
2019-06-15T14:12:51.185Z,6.50
2019-06-15T14:15:17.902Z,6.33
2019-06-15T14:17:44.509Z,6.37
2019-06-15T14:20:11.145Z,5.73
2019-06-15T14:22:38.108Z,5.50
2019-06-15T14:25:04.968Z,5.67
2019-06-15T14:27:32.193Z,6.00
2019-06-15T14:29:58.854Z,5.47
2019-06-15T14:32:25.847Z,5.97
2019-06-15T14:34:52.984Z,5.87
2019-06-15T14:37:20.435Z,6.03
2019-06-15T14:39:47.223Z,6.20
2019-06-15T14:42:13.868Z,5.53
2019-06-15T14:44:40.578Z,6.00
2019-06-15T14:47:07.344Z,5.80
2019-06-15T14:49:33.948Z,6.43
2019-06-15T14:52:00.573Z,6.47
2019-06-15T14:54:27.198Z,7.77
2019-06-15T14:56:56.484Z,7.60
2019-06-15T14:59:22.537Z,7.80
2019-06-15T15:01:57.234Z,7.83
2019-06-15T15:04:17.823Z,7.30
2019-06-15T15:06:47.031Z,8.33
2019-06-15T15:09:13.211Z,7.50
2019-06-15T15:11:39.881Z,7.80
2019-06-15T15:14:06.766Z,8.07
2019-06-15T15:16:33.500Z,7.30
2019-06-15T15:19:00.236Z,7.43
2019-06-15T15:21:26.920Z,8.67
2019-06-15T15:23:53.923Z,8.87
2019-06-15T15:26:20.534Z,9.27
2019-06-15T15:28:47.421Z,10.03
2019-06-15T15:31:16.923Z,11.13
2019-06-15T15:33:43.088Z,9.13
2019-06-15T15:36:10.041Z,9.23
2019-06-15T15:38:36.888Z,9.60
2019-06-15T15:41:03.532Z,9.03
2019-06-15T15:43:30.522Z,9.90
2019-06-15T15:45:57.177Z,8.83
2019-06-15T15:48:25.788Z,8.27
2019-06-15T15:50:52.303Z,8.47
2019-06-15T15:53:18.898Z,8.57
2019-06-15T15:55:46.756Z,8.80
2019-06-15T15:58:13.800Z,9.50
2019-06-15T16:00:40.652Z,9.00
2019-06-15T16:03:07.431Z,8.33
2019-06-15T16:05:36.843Z,8.47
2019-06-15T16:08:02.880Z,8.00
2019-06-15T16:10:29.551Z,7.43
2019-06-15T16:12:56.831Z,8.27
2019-06-15T16:15:23.607Z,7.63
2019-06-15T16:17:50.265Z,8.07
2019-06-15T16:20:17.425Z,7.50
2019-06-15T16:22:45.923Z,7.67
2019-06-15T16:25:12.852Z,7.70
2019-06-15T16:27:39.678Z,8.27
2019-06-15T16:30:06.593Z,7.63
2019-06-15T16:32:33.330Z,8.20
2019-06-15T16:34:59.934Z,9.10
2019-06-15T16:37:26.507Z,9.03
2019-06-15T16:39:53.152Z,9.77
2019-06-15T16:42:19.744Z,9.60
2019-06-15T16:44:46.920Z,9.53
2019-06-15T16:47:16.585Z,9.10
2019-06-15T16:49:42.534Z,10.80
2019-06-15T16:52:09.119Z,12.13
2019-06-15T16:54:36.125Z,10.93
2019-06-15T16:57:02.980Z,10.90
2019-06-15T16:59:29.579Z,11.00
2019-06-15T17:01:56.303Z,10.07
2019-06-15T17:04:22.893Z,8.00
2019-06-15T17:06:49.480Z,7.70
2019-06-15T17:09:16.917Z,8.80
2019-06-15T17:11:43.993Z,7.80
2019-06-15T17:14:10.585Z,7.53
2019-06-15T17:16:37.187Z,8.53
2019-06-15T17:19:06.866Z,6.60
2019-06-15T17:21:32.528Z,8.60
2019-06-15T17:23:59.223Z,7.17
2019-06-15T17:26:26.082Z,7.00
2019-06-15T17:28:53.176Z,7.47
2019-06-15T17:31:19.813Z,7.87
2019-06-15T17:33:46.961Z,7.17
2019-06-15T17:36:13.850Z,6.70
2019-06-15T17:38:40.487Z,6.07
2019-06-15T17:41:07.930Z,5.67
2019-06-15T17:43:36.507Z,5.90
2019-06-15T17:46:03.365Z,5.80
2019-06-15T17:48:30.059Z,5.87
2019-06-15T17:50:57.251Z,6.10
2019-06-15T17:53:26.236Z,5.40
2019-06-15T17:55:52.740Z,5.97
2019-06-15T17:58:19.557Z,5.53
2019-06-15T18:00:47.365Z,5.67
2019-06-15T18:03:16.932Z,5.63
2019-06-15T18:05:43.119Z,5.40
2019-06-15T18:08:10.224Z,6.00
2019-06-15T18:10:36.983Z,6.47
2019-06-15T18:13:03.796Z,6.10
2019-06-15T18:15:30.790Z,6.23
2019-06-15T18:17:57.480Z,6.93
2019-06-15T18:20:27.066Z,6.30
2019-06-15T18:22:56.403Z,5.80
2019-06-15T18:25:22.561Z,6.17
2019-06-15T18:27:49.148Z,6.60
2019-06-15T18:30:16.635Z,6.00
2019-06-15T18:32:43.407Z,5.80
2019-06-15T18:35:10.165Z,5.97
2019-06-15T18:37:37.276Z,5.17
2019-06-15T18:40:06.571Z,5.57
2019-06-15T18:42:32.997Z,5.77
2019-06-15T18:44:59.583Z,5.63
2019-06-15T18:47:26.691Z,5.67
2019-06-15T18:49:56.083Z,5.30
2019-06-15T18:52:22.569Z,5.20
2019-06-15T18:54:49.302Z,5.80
2019-06-15T18:57:17.547Z,5.60
2019-06-15T18:59:47.233Z,5.10
2019-06-15T19:02:13.282Z,7.20
2019-06-15T19:04:39.979Z,7.30
2019-06-15T19:07:06.742Z,6.80
2019-06-15T19:09:33.488Z,8.90
2019-06-15T19:12:00.218Z,7.87
2019-06-15T19:14:27.371Z,6.37
2019-06-15T19:16:56.515Z,5.20
2019-06-15T19:19:22.567Z,5.60
2019-06-15T19:21:49.239Z,5.20
2019-06-15T19:24:16.781Z,5.70
2019-06-15T19:26:45.916Z,5.80
2019-06-15T19:29:12.172Z,6.40
2019-06-15T19:31:38.850Z,5.83
2019-06-15T19:34:06.734Z,6.30
2019-06-15T19:36:33.637Z,5.70
2019-06-15T19:39:00.229Z,6.50
2019-06-15T19:41:27.044Z,8.00
2019-06-15T19:43:53.696Z,7.70
2019-06-15T19:46:20.279Z,6.77
2019-06-15T19:48:46.908Z,7.30
2019-06-15T19:51:13.572Z,6.53
2019-06-15T19:53:40.237Z,7.43
2019-06-15T19:56:07.107Z,6.83
2019-06-15T19:58:33.913Z,6.30
2019-06-15T20:01:00.521Z,6.63
2019-06-15T20:03:27.707Z,6.13
2019-06-15T20:05:56.686Z,6.70
2019-06-15T20:08:22.961Z,6.90
2019-06-15T20:10:49.588Z,6.57
2019-06-15T20:13:16.301Z,6.10
2019-06-15T20:15:42.966Z,6.50
2019-06-15T20:18:09.552Z,6.80
2019-06-15T20:20:37.033Z,6.67
2019-06-15T20:23:03.887Z,6.50
2019-06-15T20:25:30.513Z,6.67
2019-06-15T20:27:57.132Z,6.87
2019-06-15T20:30:23.695Z,6.80
2019-06-15T20:32:50.283Z,6.83
2019-06-15T20:35:21.109Z,6.80
2019-06-15T20:37:46.492Z,7.93
2019-06-15T20:40:16.372Z,6.70
2019-06-15T20:42:42.640Z,6.40
2019-06-15T20:45:10.284Z,6.37
2019-06-15T20:47:37.216Z,6.27
2019-06-15T20:50:06.641Z,5.90
2019-06-15T20:52:33.303Z,5.90
2019-06-15T20:54:59.900Z,6.10
2019-06-15T20:57:26.535Z,6.10
2019-06-15T20:59:53.175Z,6.23
2019-06-15T21:02:19.824Z,5.77
2019-06-15T21:04:46.772Z,6.30
2019-06-15T21:07:16.043Z,6.50
2019-06-15T21:09:42.225Z,6.23
2019-06-15T21:12:08.842Z,6.00
2019-06-15T21:14:36.541Z,6.53
2019-06-15T21:17:03.512Z,6.50
2019-06-15T21:19:30.388Z,6.37
2019-06-15T21:21:56.977Z,6.00
2019-06-15T21:24:26.238Z,6.90
2019-06-15T21:26:52.432Z,5.83
2019-06-15T21:29:19.016Z,5.93
2019-06-15T21:31:46.484Z,6.00
2019-06-15T21:34:13.439Z,6.70
2019-06-15T21:36:40.015Z,6.07
2019-06-15T21:39:07.057Z,6.77
2019-06-15T21:41:33.809Z,5.57
2019-06-15T21:44:00.420Z,6.40
2019-06-15T21:46:27.007Z,5.47
2019-06-15T21:48:53.615Z,4.87
2019-06-15T21:51:20.253Z,4.87
2019-06-15T21:53:47.094Z,4.70
2019-06-15T21:56:16.003Z,4.83
2019-06-15T21:58:42.351Z,5.40
2019-06-15T22:01:28.984Z,5.37
2019-06-15T22:03:55.995Z,3.73
2019-06-15T22:06:22.625Z,4.97
2019-06-15T22:08:49.517Z,3.17
2019-06-15T22:11:16.142Z,4.83
2019-06-15T22:13:42.845Z,6.50
2019-06-15T22:16:09.481Z,4.83
2019-06-15T22:18:36.531Z,4.10
2019-06-15T22:21:03.531Z,5.43
2019-06-15T22:23:30.128Z,3.93
2019-06-15T22:25:57.157Z,3.40
2019-06-15T22:28:23.865Z,3.90
2019-06-15T22:30:50.468Z,3.03
2019-06-15T22:33:17.306Z,2.20
2019-06-15T22:35:44.088Z,2.67
2019-06-15T22:38:11.009Z,2.37
2019-06-15T22:40:37.683Z,2.37
2019-06-15T22:43:04.303Z,3.40
2019-06-15T22:45:31.211Z,1.97
2019-06-15T22:47:57.792Z,2.10
2019-06-15T22:50:24.708Z,1.60
2019-06-15T22:52:51.627Z,1.80
2019-06-15T22:55:18.344Z,1.80
2019-06-15T22:57:46.100Z,1.53
2019-06-15T23:00:13.788Z,1.60
2019-06-15T23:02:40.616Z,1.40
2019-06-15T23:05:07.641Z,2.00
2019-06-15T23:07:36.417Z,1.60
2019-06-15T23:10:06.780Z,1.80
2019-06-15T23:12:32.587Z,2.10
2019-06-15T23:14:59.195Z,2.30
2019-06-15T23:17:25.812Z,2.03
2019-06-15T23:19:52.421Z,1.80
2019-06-15T23:22:19.024Z,1.90
2019-06-15T23:24:46.822Z,1.80
2019-06-15T23:27:13.653Z,1.80
2019-06-15T23:29:40.244Z,1.70
2019-06-15T23:32:06.870Z,2.00
2019-06-15T23:34:33.550Z,1.47
2019-06-15T23:37:02.092Z,1.97
2019-06-15T23:39:28.793Z,1.37
2019-06-15T23:41:56.338Z,2.60
2019-06-15T23:44:23.345Z,3.63
2019-06-15T23:46:49.952Z,1.30
2019-06-15T23:49:16.595Z,1.70
2019-06-15T23:51:43.300Z,1.80
2019-06-15T23:54:09.999Z,2.30
2019-06-15T23:56:36.972Z,1.20
2019-06-15T23:59:03.916Z,1.40
